Time;durP1;ratioP1;P1;durP2;ratioP2;P2;SDS_P1;SDS_P2;PMS_P1;PMS_P2;Temp;Humidity;BMP_temperature;BMP_pressure;BME280_temperature;BME280_humidity;BME280_pressure;Samples;Min_cycle;Max_cycle;Signal;HPM_P1;HPM_P2
2022/03/12 00:01:44;;;;;;;9.82;5.68;;;;;;;;;;5054032;28;20229;-60
2022/03/12 00:04:10;;;;;;;11.68;6.32;;;;;;;;;;5053634;28;20291;-60
2022/03/12 00:06:35;;;;;;;12.13;6.10;;;;;;;;;;5045704;28;20211;-60
2022/03/12 00:09:01;;;;;;;10.63;5.85;;;;;;;;;;5044794;28;20214;-60
2022/03/12 00:11:27;;;;;;;9.75;6.35;;;;;;;;;;5046032;28;20211;-60
2022/03/12 00:13:53;;;;;;;13.38;6.20;;;;;;;;;;5047143;28;20803;-60
2022/03/12 00:16:23;;;;;;;10.70;5.70;;;;;;;;;;5042086;28;21025;-60
2022/03/12 00:18:52;;;;;;;11.23;6.03;;;;;;;;;;5039893;28;20218;-60
2022/03/12 00:21:17;;;;;;;9.95;6.38;;;;;;;;;;5049231;28;20219;-60
2022/03/12 00:23:50;;;;;;;10.18;6.13;;;;;;;;;;5054325;28;20222;-60
2022/03/12 00:26:17;;;;;;;10.98;6.03;;;;;;;;;;5058309;28;20283;-60
2022/03/12 00:28:43;;;;;;;10.10;5.95;;;;;;;;;;5061384;28;20294;-60
2022/03/12 00:31:09;;;;;;;10.85;5.97;;;;;;;;;;5046916;28;20894;-60
2022/03/12 00:33:34;;;;;;;10.80;5.90;;;;;;;;;;5045559;28;20355;-60
2022/03/12 00:36:01;;;;;;;8.15;5.47;;;;;;;;;;5044865;28;20977;-60
2022/03/12 00:38:26;;;;;;;9.80;6.35;;;;;;;;;;5044822;28;20333;-60
2022/03/12 00:40:51;;;;;;;13.48;6.00;;;;;;;;;;5038069;28;20301;-60
2022/03/12 00:43:18;;;;;;;10.60;5.47;;;;;;;;;;5040676;28;20551;-60
2022/03/12 00:45:44;;;;;;;11.30;6.03;;;;;;;;;;5043161;28;20234;-60
2022/03/12 00:48:09;;;;;;;9.77;5.88;;;;;;;;;;5058895;28;20211;-60
2022/03/12 00:50:34;;;;;;;9.88;5.82;;;;;;;;;;5059899;28;20309;-60
2022/03/12 00:53:00;;;;;;;10.77;6.43;;;;;;;;;;5047626;28;20376;-60
2022/03/12 00:55:25;;;;;;;10.35;6.50;;;;;;;;;;5044355;28;20218;-60
2022/03/12 00:57:50;;;;;;;11.00;6.05;;;;;;;;;;5044153;28;20254;-60
2022/03/12 01:00:17;;;;;;;10.40;6.30;;;;;;;;;;5044267;28;20277;-60
2022/03/12 01:02:42;;;;;;;10.18;5.75;;;;;;;;;;5058440;28;20224;-60
2022/03/12 01:05:08;;;;;;;8.55;5.50;;;;;;;;;;5029328;28;20210;-60
2022/03/12 01:07:33;;;;;;;9.80;6.25;;;;;;;;;;5050900;28;20226;-60
2022/03/12 01:09:59;;;;;;;8.95;5.85;;;;;;;;;;5041159;28;20215;-60
2022/03/12 01:12:24;;;;;;;10.13;5.78;;;;;;;;;;5062447;28;20224;-60
2022/03/12 01:14:50;;;;;;;11.65;6.10;;;;;;;;;;5056412;28;20207;-60
2022/03/12 01:17:15;;;;;;;11.32;5.90;;;;;;;;;;5044538;28;20704;-60
2022/03/12 01:19:40;;;;;;;11.30;6.30;;;;;;;;;;5050561;28;20221;-60
2022/03/12 01:22:06;;;;;;;10.50;6.43;;;;;;;;;;5056606;28;20215;-60
2022/03/12 01:24:32;;;;;;;9.90;5.97;;;;;;;;;;5060643;28;20214;-60
2022/03/12 01:26:57;;;;;;;9.52;6.30;;;;;;;;;;5055509;28;20214;-60
2022/03/12 01:29:23;;;;;;;9.55;5.90;;;;;;;;;;5054010;28;20226;-60
2022/03/12 01:31:48;;;;;;;10.40;6.55;;;;;;;;;;5052809;28;20258;-60
2022/03/12 01:34:14;;;;;;;9.40;5.65;;;;;;;;;;5047650;28;20549;-60
2022/03/12 01:36:39;;;;;;;15.73;6.88;;;;;;;;;;5068177;28;20667;-60
2022/03/12 01:39:04;;;;;;;10.65;6.10;;;;;;;;;;5056579;28;20215;-60
2022/03/12 01:41:30;;;;;;;13.68;6.80;;;;;;;;;;5064470;28;20214;-60
2022/03/12 01:43:57;;;;;;;10.10;6.30;;;;;;;;;;5059170;28;20222;-60
2022/03/12 01:46:27;;;;;;;8.65;5.90;;;;;;;;;;5047309;28;20968;-60
2022/03/12 01:48:52;;;;;;;11.00;6.43;;;;;;;;;;5061792;28;20202;-60
2022/03/12 01:51:17;;;;;;;11.63;6.63;;;;;;;;;;5059382;28;20249;-60
2022/03/12 01:53:43;;;;;;;12.25;6.22;;;;;;;;;;5053404;28;20215;-60
2022/03/12 01:56:08;;;;;;;10.73;6.38;;;;;;;;;;5045913;28;20223;-60
2022/03/12 01:58:35;;;;;;;13.52;6.80;;;;;;;;;;5058605;28;20211;-60
2022/03/12 02:01:01;;;;;;;10.82;6.45;;;;;;;;;;5065852;28;20210;-60
2022/03/12 02:03:28;;;;;;;9.07;6.63;;;;;;;;;;5049580;28;20818;-60
2022/03/12 02:05:54;;;;;;;11.68;6.25;;;;;;;;;;5049484;28;20654;-60
2022/03/12 02:08:19;;;;;;;10.45;6.50;;;;;;;;;;5047091;28;20758;-60
2022/03/12 02:10:45;;;;;;;10.38;6.47;;;;;;;;;;5051629;28;20268;-60
2022/03/12 02:13:10;;;;;;;11.02;6.40;;;;;;;;;;5057208;28;20633;-60
2022/03/12 02:15:36;;;;;;;9.52;6.00;;;;;;;;;;5045880;28;20223;-60
2022/03/12 02:18:01;;;;;;;11.13;6.63;;;;;;;;;;5044313;28;20738;-60
2022/03/12 02:20:26;;;;;;;9.98;6.53;;;;;;;;;;5048282;28;20215;-60
2022/03/12 02:22:53;;;;;;;10.20;6.07;;;;;;;;;;5047171;28;20290;-60
2022/03/12 02:25:27;;;;;;;10.85;6.50;;;;;;;;;;5057735;28;20309;-60
2022/03/12 02:27:52;;;;;;;12.73;7.30;;;;;;;;;;5064683;28;20211;-60
2022/03/12 02:30:19;;;;;;;12.48;7.07;;;;;;;;;;5049872;28;20306;-60
2022/03/12 02:32:45;;;;;;;11.52;6.40;;;;;;;;;;5052916;28;20215;-60
2022/03/12 02:35:10;;;;;;;10.57;6.60;;;;;;;;;;5052362;28;20779;-60
2022/03/12 02:37:35;;;;;;;9.18;6.05;;;;;;;;;;5051479;28;20246;-60
2022/03/12 02:40:03;;;;;;;11.23;6.70;;;;;;;;;;5043373;28;20218;-60
2022/03/12 02:42:28;;;;;;;10.02;6.40;;;;;;;;;;5065808;28;20214;-60
2022/03/12 02:44:54;;;;;;;11.20;7.03;;;;;;;;;;5055165;28;20203;-60
2022/03/12 02:47:22;;;;;;;10.77;6.80;;;;;;;;;;5032301;28;20258;-60
2022/03/12 02:49:53;;;;;;;11.82;6.70;;;;;;;;;;5048447;28;20206;-60
2022/03/12 02:52:18;;;;;;;12.23;6.35;;;;;;;;;;5037305;28;20263;-60
2022/03/12 02:54:44;;;;;;;11.38;6.93;;;;;;;;;;5027687;28;20729;-60
2022/03/12 02:57:09;;;;;;;12.20;6.80;;;;;;;;;;5025011;28;20714;-60
2022/03/12 02:59:35;;;;;;;11.82;7.32;;;;;;;;;;5019641;28;20238;-60
2022/03/12 03:02:03;;;;;;;12.68;6.60;;;;;;;;;;5026496;28;20250;-60
2022/03/12 03:04:31;;;;;;;13.52;7.28;;;;;;;;;;5031310;28;20231;-60
2022/03/12 03:06:57;;;;;;;11.80;6.85;;;;;;;;;;5027162;28;20216;-60
2022/03/12 03:09:23;;;;;;;14.60;7.72;;;;;;;;;;5022204;28;20738;-60
2022/03/12 03:11:49;;;;;;;12.15;7.22;;;;;;;;;;5020760;28;20273;-60
2022/03/12 03:14:18;;;;;;;13.38;7.50;;;;;;;;;;5030751;28;20219;-60
2022/03/12 03:16:47;;;;;;;13.10;7.60;;;;;;;;;;5035441;28;20236;-60
2022/03/12 03:19:15;;;;;;;13.40;7.65;;;;;;;;;;5045379;28;20292;-60
2022/03/12 03:21:40;;;;;;;10.13;7.22;;;;;;;;;;5045859;28;20225;-60
2022/03/12 03:24:05;;;;;;;12.90;7.55;;;;;;;;;;5042491;28;20223;-60
2022/03/12 03:26:39;;;;;;;10.27;6.80;;;;;;;;;;5026273;28;20250;-60
2022/03/12 03:29:04;;;;;;;12.65;7.32;;;;;;;;;;5027287;28;20220;-60
2022/03/12 03:31:30;;;;;;;14.00;7.75;;;;;;;;;;5023606;28;21109;-60
2022/03/12 03:33:55;;;;;;;11.02;6.75;;;;;;;;;;5018998;28;20242;-60
2022/03/12 03:36:20;;;;;;;12.25;7.82;;;;;;;;;;5023127;28;20231;-60
2022/03/12 03:38:45;;;;;;;14.75;8.00;;;;;;;;;;5032431;28;20562;-60
2022/03/12 03:41:11;;;;;;;12.75;7.88;;;;;;;;;;5045359;28;20222;-60
2022/03/12 03:43:36;;;;;;;12.23;7.57;;;;;;;;;;5045700;28;20559;-60
2022/03/12 03:46:01;;;;;;;11.65;7.78;;;;;;;;;;5027423;28;20766;-60
2022/03/12 03:48:27;;;;;;;12.63;7.65;;;;;;;;;;5041938;28;20223;-60
2022/03/12 03:50:52;;;;;;;12.27;7.95;;;;;;;;;;5032468;28;20218;-60
2022/03/12 03:53:18;;;;;;;10.88;7.85;;;;;;;;;;5038209;28;20215;-60
2022/03/12 03:55:44;;;;;;;11.80;8.05;;;;;;;;;;5038752;28;20218;-60
2022/03/12 03:58:10;;;;;;;14.43;7.72;;;;;;;;;;5046108;28;20218;-60
2022/03/12 04:00:36;;;;;;;15.15;8.13;;;;;;;;;;5045792;28;20264;-60
2022/03/12 04:03:02;;;;;;;12.30;7.53;;;;;;;;;;5056904;28;20218;-60
2022/03/12 04:05:28;;;;;;;13.98;8.65;;;;;;;;;;5050812;28;20212;-60
2022/03/12 04:07:54;;;;;;;12.98;8.60;;;;;;;;;;5062328;28;20213;-60
2022/03/12 04:10:19;;;;;;;14.95;8.73;;;;;;;;;;5064747;28;20218;-59
2022/03/12 04:12:45;;;;;;;13.88;7.70;;;;;;;;;;5065069;28;20795;-60
2022/03/12 04:15:10;;;;;;;16.15;8.40;;;;;;;;;;5047846;28;20215;-60
2022/03/12 04:17:35;;;;;;;12.77;7.85;;;;;;;;;;5038253;28;20227;-60
2022/03/12 04:20:01;;;;;;;12.85;8.00;;;;;;;;;;5045220;28;20232;-61
2022/03/12 04:22:26;;;;;;;14.05;8.70;;;;;;;;;;5050792;28;20242;-60
2022/03/12 04:24:51;;;;;;;11.82;8.40;;;;;;;;;;5061171;28;20207;-59
2022/03/12 04:27:17;;;;;;;12.25;7.88;;;;;;;;;;5050585;28;20208;-59
2022/03/12 04:29:42;;;;;;;12.73;8.25;;;;;;;;;;5045436;28;20215;-59
2022/03/12 04:32:08;;;;;;;13.52;8.32;;;;;;;;;;5047007;28;20322;-60
2022/03/12 04:34:35;;;;;;;13.27;8.70;;;;;;;;;;5045437;28;20594;-59
2022/03/12 04:37:00;;;;;;;15.73;9.20;;;;;;;;;;5041265;28;20223;-59
2022/03/12 04:39:25;;;;;;;13.60;8.38;;;;;;;;;;5039092;28;20218;-59
2022/03/12 04:41:50;;;;;;;12.57;8.18;;;;;;;;;;5038002;28;20222;-59
2022/03/12 04:44:16;;;;;;;12.65;8.57;;;;;;;;;;5039932;28;21108;-59
2022/03/12 04:46:41;;;;;;;15.68;8.70;;;;;;;;;;5045249;28;20219;-59
2022/03/12 04:49:07;;;;;;;13.00;7.97;;;;;;;;;;5043828;28;20207;-59
2022/03/12 04:51:32;;;;;;;13.63;8.25;;;;;;;;;;5064327;28;20234;-59
2022/03/12 04:53:58;;;;;;;12.80;8.35;;;;;;;;;;5064789;28;20206;-59
2022/03/12 04:56:23;;;;;;;13.48;8.50;;;;;;;;;;5055412;28;20436;-59
2022/03/12 04:58:49;;;;;;;12.50;8.13;;;;;;;;;;5044804;28;20229;-59
2022/03/12 05:01:14;;;;;;;16.17;8.98;;;;;;;;;;5049464;28;20240;-59
2022/03/12 05:03:42;;;;;;;13.38;9.00;;;;;;;;;;5042051;28;20218;-59
2022/03/12 05:06:08;;;;;;;13.02;8.02;;;;;;;;;;5038039;28;20734;-58
2022/03/12 05:08:36;;;;;;;13.55;8.38;;;;;;;;;;5044087;28;20281;-59
2022/03/12 05:11:01;;;;;;;15.50;8.63;;;;;;;;;;5046671;28;20218;-60
2022/03/12 05:13:27;;;;;;;14.63;8.75;;;;;;;;;;5064205;28;20213;-59
2022/03/12 05:15:55;;;;;;;12.25;8.45;;;;;;;;;;5049544;28;20223;-59
2022/03/12 05:18:21;;;;;;;14.85;9.48;;;;;;;;;;5043675;28;20215;-59
2022/03/12 05:20:46;;;;;;;14.18;8.52;;;;;;;;;;5044771;28;20911;-59
2022/03/12 05:23:12;;;;;;;12.98;8.18;;;;;;;;;;5039235;28;20204;-59
2022/03/12 05:25:40;;;;;;;12.80;8.13;;;;;;;;;;5037728;28;20239;-59
2022/03/12 05:28:06;;;;;;;14.68;8.48;;;;;;;;;;5055808;28;20962;-59
2022/03/12 05:30:31;;;;;;;14.30;9.27;;;;;;;;;;5025701;28;20207;-59
2022/03/12 05:32:57;;;;;;;14.93;9.20;;;;;;;;;;5043985;28;20292;-59
2022/03/12 05:35:22;;;;;;;15.93;9.18;;;;;;;;;;5052729;28;20764;-59
2022/03/12 05:37:48;;;;;;;12.77;8.32;;;;;;;;;;5064114;28;20231;-59
2022/03/12 05:40:19;;;;;;;17.25;9.85;;;;;;;;;;5054197;28;20214;-59
2022/03/12 05:42:44;;;;;;;12.48;8.10;;;;;;;;;;5060617;28;20222;-59
2022/03/12 05:45:09;;;;;;;16.98;9.60;;;;;;;;;;5050841;28;20579;-59
2022/03/12 05:47:38;;;;;;;18.42;9.25;;;;;;;;;;5045361;28;20267;-59
2022/03/12 05:50:03;;;;;;;12.38;8.50;;;;;;;;;;5055993;28;20218;-59
2022/03/12 05:52:29;;;;;;;13.38;8.75;;;;;;;;;;5050509;28;20418;-59
2022/03/12 05:54:54;;;;;;;15.77;8.43;;;;;;;;;;5052586;28;20221;-59
2022/03/12 05:57:19;;;;;;;14.38;8.50;;;;;;;;;;5057791;28;20245;-59
2022/03/12 05:59:45;;;;;;;14.10;8.27;;;;;;;;;;5055501;28;20225;-59
2022/03/12 06:02:10;;;;;;;13.73;8.80;;;;;;;;;;5049305;28;20590;-59
2022/03/12 06:04:36;;;;;;;14.15;8.45;;;;;;;;;;5044547;28;20239;-59
2022/03/12 06:07:01;;;;;;;15.30;8.80;;;;;;;;;;5052838;28;20325;-59
2022/03/12 06:09:26;;;;;;;17.27;9.00;;;;;;;;;;5039546;28;20212;-60
2022/03/12 06:11:53;;;;;;;12.43;8.30;;;;;;;;;;5057073;28;20457;-59
2022/03/12 06:14:18;;;;;;;14.43;8.88;;;;;;;;;;5052819;28;20207;-60
2022/03/12 06:16:48;;;;;;;12.20;8.73;;;;;;;;;;5049397;28;20435;-59
2022/03/12 06:19:15;;;;;;;14.55;8.70;;;;;;;;;;5067736;28;20674;-62
2022/03/12 06:21:41;;;;;;;13.77;8.75;;;;;;;;;;5043746;28;20242;-64
2022/03/12 06:24:06;;;;;;;14.48;7.90;;;;;;;;;;5052784;28;20211;-61
2022/03/12 06:26:35;;;;;;;12.68;8.52;;;;;;;;;;5053335;28;20591;-61
2022/03/12 06:29:00;;;;;;;14.75;8.82;;;;;;;;;;5052304;28;20219;-62
2022/03/12 06:31:26;;;;;;;11.70;8.25;;;;;;;;;;5052843;28;20219;-62
2022/03/12 06:33:52;;;;;;;15.05;7.85;;;;;;;;;;5053148;28;20205;-62
2022/03/12 06:36:19;;;;;;;13.50;8.10;;;;;;;;;;5051633;28;20230;-62
2022/03/12 06:38:44;;;;;;;13.15;8.70;;;;;;;;;;5052966;28;20260;-61
2022/03/12 06:41:09;;;;;;;15.52;8.77;;;;;;;;;;5052439;28;20215;-61
2022/03/12 06:43:36;;;;;;;11.43;8.52;;;;;;;;;;5052139;28;20213;-61
2022/03/12 06:46:02;;;;;;;12.50;7.95;;;;;;;;;;5069518;28;20241;-62
2022/03/12 06:48:28;;;;;;;14.05;8.45;;;;;;;;;;5072804;28;20222;-61
2022/03/12 06:50:53;;;;;;;12.23;8.13;;;;;;;;;;5071806;28;20756;-61
2022/03/12 06:53:19;;;;;;;13.93;8.57;;;;;;;;;;5072242;28;20301;-61
2022/03/12 06:55:44;;;;;;;11.98;8.07;;;;;;;;;;5066898;28;20237;-63
2022/03/12 06:58:09;;;;;;;13.13;7.50;;;;;;;;;;5062296;28;20673;-61
2022/03/12 07:00:35;;;;;;;14.15;9.13;;;;;;;;;;5055482;28;20843;-60
2022/03/12 07:03:00;;;;;;;13.77;8.47;;;;;;;;;;5051768;28;20511;-63
2022/03/12 07:05:25;;;;;;;13.27;8.60;;;;;;;;;;5066429;28;20245;-61
2022/03/12 07:07:51;;;;;;;14.80;9.47;;;;;;;;;;5071710;28;20502;-60
2022/03/12 07:10:16;;;;;;;13.30;8.00;;;;;;;;;;5070874;28;20221;-60
2022/03/12 07:12:44;;;;;;;13.23;8.30;;;;;;;;;;5072504;28;20546;-60
2022/03/12 07:15:10;;;;;;;12.20;8.50;;;;;;;;;;5060988;28;20702;-60
2022/03/12 07:17:36;;;;;;;11.05;7.65;;;;;;;;;;5070515;28;20246;-60
2022/03/12 07:20:03;;;;;;;14.43;8.30;;;;;;;;;;5067272;28;20197;-59
2022/03/12 07:22:28;;;;;;;12.10;8.18;;;;;;;;;;5039580;28;20207;-60
2022/03/12 07:24:54;;;;;;;13.95;8.30;;;;;;;;;;5069971;28;20234;-60
2022/03/12 07:27:19;;;;;;;12.30;7.50;;;;;;;;;;5067486;28;20199;-61
2022/03/12 07:29:44;;;;;;;12.95;8.02;;;;;;;;;;5069693;28;20569;-60
2022/03/12 07:32:11;;;;;;;12.13;8.45;;;;;;;;;;5063850;28;20319;-61
2022/03/12 07:34:36;;;;;;;11.50;7.95;;;;;;;;;;5051715;28;20302;-61
2022/03/12 07:37:01;;;;;;;10.95;8.10;;;;;;;;;;5051238;28;20310;-60
2022/03/12 07:39:27;;;;;;;12.30;7.95;;;;;;;;;;5050289;28;20222;-61
2022/03/12 07:41:52;;;;;;;12.57;7.53;;;;;;;;;;5051826;28;20218;-61
2022/03/12 07:44:17;;;;;;;13.27;7.95;;;;;;;;;;5054272;28;20571;-60
2022/03/12 07:46:43;;;;;;;12.52;7.80;;;;;;;;;;5053029;28;20262;-60
2022/03/12 07:49:09;;;;;;;9.98;7.60;;;;;;;;;;5070965;28;20214;-60
2022/03/12 07:51:34;;;;;;;12.57;7.28;;;;;;;;;;5071518;28;20693;-60
2022/03/12 07:54:00;;;;;;;12.88;7.78;;;;;;;;;;5052768;28;20221;-61
2022/03/12 07:56:26;;;;;;;13.50;8.02;;;;;;;;;;5070920;28;20229;-60
2022/03/12 07:58:51;;;;;;;12.00;7.60;;;;;;;;;;5071382;28;20568;-60
2022/03/12 08:01:16;;;;;;;11.43;7.43;;;;;;;;;;5052161;28;20301;-60
2022/03/12 08:03:42;;;;;;;15.70;8.10;;;;;;;;;;5071137;28;20217;-61
2022/03/12 08:06:08;;;;;;;12.45;7.60;;;;;;;;;;5050018;28;20231;-61
2022/03/12 08:08:33;;;;;;;11.32;7.82;;;;;;;;;;5051135;28;20677;-60
2022/03/12 08:13:43;;;;;;;12.45;7.88;;;;;;;;;;5050264;28;20618;-60
2022/03/12 08:16:09;;;;;;;13.20;8.02;;;;;;;;;;5050449;28;20211;-60
2022/03/12 08:18:34;;;;;;;11.10;8.18;;;;;;;;;;5051171;28;20227;-61
2022/03/12 08:20:59;;;;;;;10.70;8.00;;;;;;;;;;5050362;28;20219;-61
2022/03/12 08:23:25;;;;;;;16.58;7.80;;;;;;;;;;5050371;28;20211;-60
2022/03/12 08:25:50;;;;;;;13.95;8.60;;;;;;;;;;5050784;28;20218;-61
2022/03/12 08:28:17;;;;;;;13.60;8.38;;;;;;;;;;5049513;28;20268;-60
2022/03/12 08:30:43;;;;;;;16.00;7.70;;;;;;;;;;5055727;28;20206;-61
2022/03/12 08:33:08;;;;;;;15.65;7.93;;;;;;;;;;5070690;28;20207;-60
2022/03/12 08:35:34;;;;;;;10.85;7.95;;;;;;;;;;5069971;28;20202;-60
2022/03/12 08:37:59;;;;;;;11.23;8.23;;;;;;;;;;5070581;28;20226;-61
2022/03/12 08:40:25;;;;;;;12.30;7.78;;;;;;;;;;5070118;28;20935;-60
2022/03/12 08:42:51;;;;;;;12.30;7.88;;;;;;;;;;5069972;28;20211;-61
2022/03/12 08:45:17;;;;;;;10.75;7.72;;;;;;;;;;5058605;28;20219;-61
2022/03/12 08:47:43;;;;;;;12.63;7.53;;;;;;;;;;5050508;28;20225;-61
2022/03/12 08:50:09;;;;;;;13.18;8.35;;;;;;;;;;5049091;28;20210;-60
2022/03/12 08:52:35;;;;;;;11.48;7.82;;;;;;;;;;5050491;28;20238;-60
2022/03/12 08:55:01;;;;;;;14.80;7.80;;;;;;;;;;5049920;28;20219;-61
2022/03/12 08:57:26;;;;;;;11.32;7.40;;;;;;;;;;5049315;28;20258;-61
2022/03/12 08:59:51;;;;;;;11.05;8.02;;;;;;;;;;5050389;28;20293;-61
2022/03/12 09:02:16;;;;;;;10.65;7.80;;;;;;;;;;5049090;28;20268;-61
2022/03/12 09:04:42;;;;;;;10.75;7.45;;;;;;;;;;5058805;28;20291;-60
2022/03/12 09:07:08;;;;;;;11.63;7.90;;;;;;;;;;5069716;28;20289;-60
2022/03/12 09:09:33;;;;;;;10.50;7.47;;;;;;;;;;5051421;28;20249;-60
2022/03/12 09:11:58;;;;;;;10.98;7.78;;;;;;;;;;5070222;28;20654;-61
2022/03/12 09:14:23;;;;;;;12.23;7.85;;;;;;;;;;5069969;28;20909;-60
2022/03/12 09:16:49;;;;;;;13.25;7.50;;;;;;;;;;5069255;28;20231;-60
2022/03/12 09:19:14;;;;;;;11.95;7.35;;;;;;;;;;5069728;28;20689;-60
2022/03/12 09:21:41;;;;;;;11.68;7.32;;;;;;;;;;5070016;28;20216;-61
2022/03/12 09:24:07;;;;;;;10.90;7.22;;;;;;;;;;5068887;28;20282;-61
2022/03/12 09:26:32;;;;;;;10.77;6.97;;;;;;;;;;5069853;28;20909;-61
2022/03/12 09:28:57;;;;;;;10.95;7.15;;;;;;;;;;5069998;28;20207;-60
2022/03/12 09:31:23;;;;;;;9.38;7.07;;;;;;;;;;5057720;28;20238;-60
2022/03/12 09:33:48;;;;;;;11.88;7.03;;;;;;;;;;5050053;28;20207;-60
2022/03/12 09:36:13;;;;;;;10.60;6.82;;;;;;;;;;5049294;28;20692;-61
2022/03/12 09:38:39;;;;;;;10.50;6.85;;;;;;;;;;5049315;28;20203;-61
2022/03/12 09:41:04;;;;;;;9.30;6.53;;;;;;;;;;5049214;28;20203;-61
2022/03/12 09:43:29;;;;;;;9.68;6.15;;;;;;;;;;5050153;28;20222;-61
2022/03/12 09:45:57;;;;;;;9.32;6.50;;;;;;;;;;5065805;28;20293;-61
2022/03/12 09:48:22;;;;;;;12.27;6.85;;;;;;;;;;5073067;28;20739;-60
2022/03/12 09:50:47;;;;;;;8.10;6.15;;;;;;;;;;5073964;28;20217;-61
2022/03/12 09:53:12;;;;;;;9.65;6.32;;;;;;;;;;5072617;28;20265;-61
2022/03/12 09:55:39;;;;;;;10.02;6.50;;;;;;;;;;5073487;28;20464;-60
2022/03/12 09:58:04;;;;;;;11.07;6.35;;;;;;;;;;5073096;28;20206;-60
2022/03/12 10:00:29;;;;;;;8.30;6.18;;;;;;;;;;5072988;28;20225;-60
2022/03/12 10:02:55;;;;;;;9.88;5.70;;;;;;;;;;5073698;28;20603;-61
2022/03/12 10:05:20;;;;;;;11.38;5.78;;;;;;;;;;5059401;28;20305;-60
2022/03/12 10:07:45;;;;;;;8.38;5.85;;;;;;;;;;5052542;28;20235;-60
2022/03/12 10:10:12;;;;;;;10.63;5.80;;;;;;;;;;5052744;28;20261;-61
2022/03/12 10:12:37;;;;;;;7.90;5.68;;;;;;;;;;5052831;28;20215;-60
2022/03/12 10:15:02;;;;;;;12.05;5.80;;;;;;;;;;5052879;28;20215;-61
2022/03/12 10:17:31;;;;;;;10.85;5.68;;;;;;;;;;5052904;28;20234;-60
2022/03/12 10:19:56;;;;;;;9.25;6.00;;;;;;;;;;5052632;28;20218;-60
2022/03/12 10:22:23;;;;;;;8.73;5.93;;;;;;;;;;5052622;28;20215;-60
2022/03/12 10:24:49;;;;;;;8.57;5.60;;;;;;;;;;5053219;28;20214;-61
2022/03/12 10:27:14;;;;;;;9.60;4.72;;;;;;;;;;5051808;28;20298;-60
2022/03/12 10:29:39;;;;;;;8.07;5.07;;;;;;;;;;5053131;28;20211;-61
2022/03/12 10:32:22;;;;;;;9.55;5.60;;;;;;;;;;5068855;28;20249;-60
2022/03/12 10:34:52;;;;;;;8.05;5.45;;;;;;;;;;5054626;28;20305;-61
2022/03/12 10:37:17;;;;;;;9.23;5.72;;;;;;;;;;5072509;28;20241;-61
2022/03/12 10:39:43;;;;;;;9.35;5.55;;;;;;;;;;5073157;28;20290;-60
2022/03/12 10:42:08;;;;;;;9.00;5.53;;;;;;;;;;5071489;28;20298;-60
2022/03/12 10:44:36;;;;;;;8.63;4.80;;;;;;;;;;5067496;28;20215;-60
2022/03/12 10:47:01;;;;;;;10.65;4.97;;;;;;;;;;5052412;28;20215;-61
2022/03/12 10:49:27;;;;;;;9.00;4.75;;;;;;;;;;5052079;28;20595;-60
2022/03/12 10:51:54;;;;;;;8.07;4.80;;;;;;;;;;5052348;28;20594;-60
2022/03/12 10:54:20;;;;;;;7.30;4.40;;;;;;;;;;5052201;28;20207;-60
2022/03/12 10:56:50;;;;;;;8.60;4.40;;;;;;;;;;5051645;28;20254;-60
2022/03/12 10:59:18;;;;;;;7.82;4.70;;;;;;;;;;5050778;28;20203;-60
2022/03/12 11:01:51;;;;;;;10.48;4.95;;;;;;;;;;5052680;28;20207;-60
2022/03/12 11:04:18;;;;;;;7.55;4.60;;;;;;;;;;5056754;28;20547;-60
2022/03/12 11:06:43;;;;;;;11.48;5.07;;;;;;;;;;5072538;28;20210;-60
2022/03/12 11:09:10;;;;;;;9.40;4.10;;;;;;;;;;5070998;28;20643;-60
2022/03/12 11:11:39;;;;;;;6.78;4.32;;;;;;;;;;5054326;28;20205;-60
2022/03/12 11:14:06;;;;;;;9.20;4.40;;;;;;;;;;5054374;28;20689;-60
2022/03/12 11:16:33;;;;;;;6.75;4.32;;;;;;;;;;5071170;28;20235;-60
2022/03/12 11:19:00;;;;;;;6.72;4.45;;;;;;;;;;5071893;28;20211;-60
2022/03/12 11:21:28;;;;;;;9.88;4.80;;;;;;;;;;5071878;28;20461;-60
2022/03/12 11:23:54;;;;;;;7.45;3.90;;;;;;;;;;5053454;28;20573;-60
2022/03/12 11:26:19;;;;;;;8.32;4.38;;;;;;;;;;5071618;28;20206;-60
2022/03/12 11:28:55;;;;;;;9.48;4.60;;;;;;;;;;5054005;28;20677;-60
2022/03/12 11:31:20;;;;;;;9.90;4.50;;;;;;;;;;5060349;28;20222;-60
2022/03/12 11:33:45;;;;;;;8.20;4.30;;;;;;;;;;5033494;28;20302;-60
2022/03/12 11:36:10;;;;;;;7.18;4.57;;;;;;;;;;5033475;28;20312;-61
2022/03/12 11:38:36;;;;;;;8.50;4.55;;;;;;;;;;5051127;28;20221;-61
2022/03/12 11:41:03;;;;;;;10.45;4.68;;;;;;;;;;5051575;28;20286;-60
2022/03/12 11:43:30;;;;;;;8.50;4.82;;;;;;;;;;5051563;28;20219;-60
2022/03/12 11:45:59;;;;;;;10.43;4.30;;;;;;;;;;5067577;28;20230;-60
2022/03/12 11:48:24;;;;;;;10.82;4.60;;;;;;;;;;5071185;28;20692;-61
2022/03/12 11:50:50;;;;;;;9.77;4.47;;;;;;;;;;5071536;28;20230;-61
2022/03/12 11:53:17;;;;;;;10.73;4.35;;;;;;;;;;5070560;28;20223;-60
2022/03/12 11:55:42;;;;;;;9.35;4.45;;;;;;;;;;5071636;28;20234;-60
2022/03/12 11:58:07;;;;;;;9.85;4.47;;;;;;;;;;5069845;28;20257;-60
2022/03/12 12:00:33;;;;;;;8.00;4.57;;;;;;;;;;5071452;28;20267;-60
2022/03/12 12:02:59;;;;;;;8.57;4.35;;;;;;;;;;5071000;28;20207;-60
2022/03/12 12:05:25;;;;;;;9.32;4.60;;;;;;;;;;5055841;28;20660;-61
2022/03/12 12:07:51;;;;;;;9.18;4.72;;;;;;;;;;5051247;28;20211;-61
2022/03/12 12:10:18;;;;;;;6.60;4.00;;;;;;;;;;5050492;28;20215;-61
2022/03/12 12:12:46;;;;;;;9.02;4.25;;;;;;;;;;5050568;28;20215;-60
2022/03/12 12:15:20;;;;;;;7.93;4.65;;;;;;;;;;5032974;28;20352;-60
2022/03/12 12:17:45;;;;;;;9.02;4.55;;;;;;;;;;5050944;28;20222;-60
2022/03/12 12:20:18;;;;;;;7.60;4.53;;;;;;;;;;5049746;28;20425;-61
2022/03/12 12:22:43;;;;;;;10.00;4.80;;;;;;;;;;5051015;28;20713;-60
2022/03/12 12:25:09;;;;;;;8.15;4.55;;;;;;;;;;5050534;28;20207;-60
2022/03/12 12:27:42;;;;;;;11.07;4.55;;;;;;;;;;5050179;28;20211;-60
2022/03/12 12:30:09;;;;;;;7.57;3.78;;;;;;;;;;5050218;28;20575;-60
2022/03/12 12:32:36;;;;;;;8.10;4.55;;;;;;;;;;5071014;28;20698;-60
2022/03/12 12:35:02;;;;;;;8.75;4.63;;;;;;;;;;5051646;28;20263;-61
2022/03/12 12:37:44;;;;;;;7.70;4.47;;;;;;;;;;5070483;28;20311;-60
2022/03/12 12:40:19;;;;;;;7.47;4.28;;;;;;;;;;5063433;28;20237;-60
2022/03/12 12:42:44;;;;;;;8.10;4.20;;;;;;;;;;5068523;28;20221;-61
2022/03/12 12:45:11;;;;;;;8.07;4.10;;;;;;;;;;5059481;28;20211;-61
2022/03/12 12:47:37;;;;;;;8.10;4.18;;;;;;;;;;5049826;28;20988;-60
2022/03/12 12:50:02;;;;;;;8.07;4.25;;;;;;;;;;5050038;28;20226;-61
2022/03/12 12:52:34;;;;;;;8.18;4.07;;;;;;;;;;5050368;28;20238;-60
2022/03/12 12:55:00;;;;;;;7.93;3.95;;;;;;;;;;5049756;28;20211;-60
2022/03/12 12:57:39;;;;;;;8.82;4.38;;;;;;;;;;5050075;28;20690;-61
2022/03/12 13:00:23;;;;;;;9.60;3.65;;;;;;;;;;5049607;28;20229;-61
2022/03/12 13:02:49;;;;;;;6.78;3.42;;;;;;;;;;5057736;28;20293;-60
2022/03/12 13:05:14;;;;;;;9.38;3.70;;;;;;;;;;5054165;28;20294;-60
2022/03/12 13:07:51;;;;;;;7.32;3.88;;;;;;;;;;5032638;28;20348;-60
2022/03/12 13:10:18;;;;;;;8.18;4.07;;;;;;;;;;5031081;28;20279;-61
2022/03/12 13:12:43;;;;;;;6.03;3.60;;;;;;;;;;5032272;28;20620;-60
2022/03/12 13:15:15;;;;;;;7.55;3.97;;;;;;;;;;5049547;28;20737;-60
2022/03/12 13:17:43;;;;;;;7.38;3.70;;;;;;;;;;5049241;28;20227;-61
2022/03/12 13:20:26;;;;;;;9.02;3.50;;;;;;;;;;5049764;28;20749;-61
2022/03/12 13:22:55;;;;;;;9.43;3.67;;;;;;;;;;5048817;28;20211;-61
2022/03/12 13:25:21;;;;;;;8.00;3.55;;;;;;;;;;5031706;28;20265;-61
2022/03/12 13:27:57;;;;;;;9.20;3.42;;;;;;;;;;5050131;28;20223;-62
2022/03/12 13:30:24;;;;;;;8.95;3.72;;;;;;;;;;5048770;28;20206;-61
2022/03/12 13:32:51;;;;;;;10.43;3.55;;;;;;;;;;5059943;28;20203;-59
2022/03/12 13:35:21;;;;;;;10.98;3.80;;;;;;;;;;5058646;28;20207;-60
2022/03/12 13:37:47;;;;;;;8.13;3.70;;;;;;;;;;5031359;28;20230;-66
2022/03/12 13:40:12;;;;;;;14.23;3.47;;;;;;;;;;5049234;28;20637;-60
2022/03/12 13:42:39;;;;;;;7.10;3.30;;;;;;;;;;5049997;28;20219;-59
2022/03/12 13:45:05;;;;;;;7.70;3.50;;;;;;;;;;5057969;28;20209;-60
2022/03/12 13:47:31;;;;;;;7.25;3.80;;;;;;;;;;5069856;28;20293;-59
2022/03/12 13:49:56;;;;;;;8.52;3.55;;;;;;;;;;5069483;28;20360;-59
2022/03/12 13:52:21;;;;;;;5.35;3.17;;;;;;;;;;5068367;28;20215;-59
2022/03/12 13:54:47;;;;;;;7.75;3.25;;;;;;;;;;5069515;28;20219;-59
2022/03/12 13:57:12;;;;;;;7.90;3.40;;;;;;;;;;5069163;28;20233;-59
2022/03/12 13:59:38;;;;;;;7.60;2.95;;;;;;;;;;5068853;28;20218;-59
2022/03/12 14:02:09;;;;;;;9.45;3.38;;;;;;;;;;5069113;28;20229;-59
2022/03/12 14:04:34;;;;;;;8.68;3.47;;;;;;;;;;5062166;28;20211;-59
2022/03/12 14:06:59;;;;;;;6.68;3.00;;;;;;;;;;5031176;28;20298;-59
2022/03/12 14:09:26;;;;;;;8.57;3.28;;;;;;;;;;5030994;28;20567;-60
2022/03/12 14:11:59;;;;;;;7.70;3.15;;;;;;;;;;5031219;28;20210;-59
2022/03/12 14:14:25;;;;;;;11.20;3.35;;;;;;;;;;5049216;28;20666;-59
2022/03/12 14:16:55;;;;;;;10.50;3.10;;;;;;;;;;5049051;28;20230;-62
2022/03/12 14:19:22;;;;;;;6.60;3.17;;;;;;;;;;5044730;28;20218;-59
2022/03/12 14:21:53;;;;;;;7.30;3.20;;;;;;;;;;5049649;28;20219;-59
2022/03/12 14:24:20;;;;;;;8.20;3.17;;;;;;;;;;5064569;28;20314;-59
2022/03/12 14:26:48;;;;;;;7.82;3.08;;;;;;;;;;5048843;28;20223;-59
2022/03/12 14:29:13;;;;;;;8.48;3.67;;;;;;;;;;5048967;28;20246;-59
2022/03/12 14:31:38;;;;;;;9.73;3.35;;;;;;;;;;5061996;28;20704;-58